Time;durP1;ratioP1;P1;durP2;ratioP2;P2;SDS_P1;SDS_P2;PMS_P1;PMS_P2;Temp;Humidity;BMP_temperature;BMP_pressure;BME280_temperature;BME280_humidity;BME280_pressure;Samples;Min_cycle;Max_cycle;Signal;HPM_P1;HPM_P2
2023/09/22 00:02:10;;;;;;;15.85;8.15;;;12.80;87.10;;;;;;5048014;28;20045;-66
2023/09/22 00:04:37;;;;;;;13.68;7.22;;;12.80;87.20;;;;;;5047480;28;20045;-65
2023/09/22 00:07:03;;;;;;;15.55;7.88;;;12.80;87.20;;;;;;5047748;28;20059;-65
2023/09/22 00:09:28;;;;;;;16.83;8.27;;;12.80;87.20;;;;;;5047169;28;20042;-63
2023/09/22 00:11:56;;;;;;;14.40;7.45;;;12.80;87.20;;;;;;5048062;28;20326;-66
2023/09/22 00:14:22;;;;;;;14.80;7.72;;;12.80;87.20;;;;;;5046585;28;20127;-66
2023/09/22 00:16:47;;;;;;;14.40;8.55;;;12.80;87.20;;;;;;5046685;28;20215;-66
2023/09/22 00:19:13;;;;;;;20.20;9.10;;;12.80;87.20;;;;;;5047621;28;20066;-64
2023/09/22 00:21:38;;;;;;;15.48;8.18;;;12.80;87.20;;;;;;5046152;28;20091;-65
2023/09/22 00:24:04;;;;;;;17.85;7.60;;;12.80;87.30;;;;;;5047821;28;20047;-65
2023/09/22 00:26:30;;;;;;;11.02;7.82;;;12.80;87.40;;;;;;5047442;28;20037;-65
2023/09/22 00:28:57;;;;;;;15.90;8.13;;;12.80;87.30;;;;;;5047300;28;20041;-63
2023/09/22 00:31:22;;;;;;;17.45;8.68;;;12.80;87.40;;;;;;5047023;28;20056;-65
2023/09/22 00:33:48;;;;;;;14.98;8.65;;;12.80;87.40;;;;;;5046522;28;20629;-65
2023/09/22 00:36:14;;;;;;;16.23;8.45;;;12.80;87.40;;;;;;5047489;28;20128;-66
2023/09/22 00:38:41;;;;;;;17.10;8.27;;;12.80;87.30;;;;;;5046471;28;20045;-66
2023/09/22 00:41:07;;;;;;;23.55;9.75;;;12.70;87.30;;;;;;5029881;28;20076;-66
2023/09/22 00:43:32;;;;;;;16.70;7.85;;;12.80;87.30;;;;;;5046968;28;20518;-64
2023/09/22 00:45:58;;;;;;;12.05;8.07;;;12.80;87.30;;;;;;5047331;28;20048;-63
2023/09/22 00:48:28;;;;;;;18.85;9.23;;;12.70;87.40;;;;;;5047192;28;20068;-64
2023/09/22 00:50:56;;;;;;;14.70;8.77;;;12.70;87.50;;;;;;5043683;28;20092;-66
2023/09/22 00:53:26;;;;;;;14.45;8.32;;;12.80;87.50;;;;;;5046418;28;20121;-66
2023/09/22 00:55:53;;;;;;;17.13;9.30;;;12.80;87.50;;;;;;5047112;28;21699;-65
2023/09/22 00:58:19;;;;;;;15.40;9.80;;;12.80;87.50;;;;;;5046552;28;20179;-65
2023/09/22 01:00:49;;;;;;;20.48;11.15;;;12.80;87.60;;;;;;5045062;28;21053;-65
2023/09/22 01:03:16;;;;;;;20.98;11.70;;;12.80;87.60;;;;;;5028378;28;20189;-65
2023/09/22 01:05:43;;;;;;;26.58;12.27;;;12.80;87.70;;;;;;5013051;28;20488;-66
2023/09/22 01:08:08;;;;;;;20.75;11.63;;;12.90;87.70;;;;;;5046811;28;20076;-65
2023/09/22 01:10:36;;;;;;;35.78;14.88;;;12.90;87.80;;;;;;5046331;28;20092;-65
2023/09/22 01:13:02;;;;;;;34.63;14.43;;;12.90;87.70;;;;;;5045646;28;20037;-66
2023/09/22 01:15:28;;;;;;;39.80;15.38;;;12.90;87.80;;;;;;5046276;28;20405;-63
2023/09/22 01:17:54;;;;;;;34.28;15.88;;;12.90;87.60;;;;;;5042481;28;20061;-64
2023/09/22 01:20:19;;;;;;;43.72;16.90;;;12.90;87.70;;;;;;5046373;28;20048;-65
2023/09/22 01:22:45;;;;;;;49.83;17.52;;;12.90;87.70;;;;;;5046142;28;20352;-64
2023/09/22 01:25:11;;;;;;;46.92;18.77;;;12.90;87.60;;;;;;5045633;28;20049;-63
2023/09/22 01:27:37;;;;;;;44.38;16.55;;;12.90;87.50;;;;;;5045109;28;20049;-64
2023/09/22 01:30:05;;;;;;;41.70;16.58;;;12.80;87.50;;;;;;5043548;28;20045;-64
2023/09/22 01:32:31;;;;;;;39.85;16.83;;;12.80;87.40;;;;;;5046357;28;20055;-65
2023/09/22 01:34:58;;;;;;;47.78;17.60;;;12.80;87.50;;;;;;5045648;28;20053;-63
2023/09/22 01:37:28;;;;;;;48.45;19.25;;;12.70;87.50;;;;;;5046322;28;20052;-65
2023/09/22 01:39:57;;;;;;;51.00;19.98;;;12.70;87.50;;;;;;5046452;28;20049;-66
2023/09/22 01:42:24;;;;;;;51.78;22.55;;;12.70;87.60;;;;;;5046845;28;20056;-64
2023/09/22 01:44:49;;;;;;;61.67;23.77;;;12.70;87.70;;;;;;5044739;28;20149;-65
2023/09/22 01:47:15;;;;;;;62.63;23.80;;;12.70;87.70;;;;;;5048868;28;20540;-64
2023/09/22 01:49:41;;;;;;;66.43;25.50;;;12.70;87.80;;;;;;5049558;28;20043;-65
2023/09/22 01:52:06;;;;;;;67.55;27.10;;;12.80;87.80;;;;;;5050263;28;20037;-65
2023/09/22 01:54:32;;;;;;;71.20;28.63;;;12.80;87.90;;;;;;5050447;28;20515;-65
2023/09/22 01:56:57;;;;;;;66.25;29.48;;;12.80;88.00;;;;;;5051648;28;20503;-65
2023/09/22 01:59:23;;;;;;;64.57;29.67;;;12.80;88.10;;;;;;5050454;28;20064;-63
2023/09/22 02:01:49;;;;;;;59.15;30.40;;;12.80;88.20;;;;;;5031681;28;20063;-65
2023/09/22 02:04:14;;;;;;;56.10;30.42;;;12.90;88.20;;;;;;5050849;28;20045;-65
2023/09/22 02:06:40;;;;;;;70.70;34.03;;;12.90;88.20;;;;;;5049071;28;20041;-65
2023/09/22 02:09:06;;;;;;;68.75;33.90;;;12.90;88.30;;;;;;5050012;28;20044;-64
2023/09/22 02:11:32;;;;;;;84.80;37.35;;;12.90;88.40;;;;;;5050544;28;20513;-65
2023/09/22 02:13:58;;;;;;;72.78;35.65;;;13.00;88.40;;;;;;5049860;28;20041;-64
2023/09/22 02:16:25;;;;;;;72.88;36.15;;;13.00;88.40;;;;;;5050734;28;20056;-65
2023/09/22 02:18:51;;;;;;;84.22;38.55;;;13.00;88.50;;;;;;5050177;28;20108;-65
2023/09/22 02:21:17;;;;;;;74.72;38.55;;;13.00;88.40;;;;;;5049865;28;20603;-63
2023/09/22 02:23:43;;;;;;;86.97;40.05;;;13.10;88.50;;;;;;5050550;28;20075;-65
2023/09/22 02:26:09;;;;;;;96.30;42.88;;;13.10;88.50;;;;;;5050034;28;20053;-63
2023/09/22 02:28:35;;;;;;;90.07;42.65;;;13.10;88.50;;;;;;5049401;28;20080;-65
2023/09/22 02:31:01;;;;;;;91.88;44.35;;;13.10;88.60;;;;;;5049716;28;20084;-65
2023/09/22 02:33:29;;;;;;;119.93;46.80;;;13.10;88.60;;;;;;5050351;28;20509;-64
2023/09/22 02:35:54;;;;;;;77.68;41.38;;;13.10;88.50;;;;;;5045744;28;20087;-65
2023/09/22 02:38:20;;;;;;;104.15;45.10;;;13.20;88.60;;;;;;5049803;28;20041;-65
2023/09/22 02:40:45;;;;;;;91.88;44.28;;;13.20;88.50;;;;;;5031089;28;20048;-63
2023/09/22 02:43:11;;;;;;;107.68;46.80;;;13.20;88.50;;;;;;5049860;28;20053;-64
2023/09/22 02:45:40;;;;;;;119.78;47.65;;;13.20;88.40;;;;;;5049319;28;20072;-65
2023/09/22 02:48:06;;;;;;;93.38;43.38;;;13.10;88.30;;;;;;5049863;28;20045;-64
2023/09/22 02:50:33;;;;;;;132.80;49.22;;;13.10;88.30;;;;;;5030644;28;20422;-65
2023/09/22 02:53:03;;;;;;;107.97;46.97;;;13.10;88.30;;;;;;5049934;28;20080;-65
2023/09/22 02:55:30;;;;;;;166.95;54.15;;;13.10;88.40;;;;;;5049537;28;20049;-65
2023/09/22 02:57:56;;;;;;;111.25;46.90;;;13.10;88.30;;;;;;5049329;28;20080;-63
2023/09/22 03:00:22;;;;;;;145.50;50.92;;;13.20;88.40;;;;;;5031410;28;20499;-65
2023/09/22 03:02:48;;;;;;;96.85;42.10;;;13.20;88.40;;;;;;5049070;28;20645;-62
2023/09/22 03:05:17;;;;;;;110.75;43.55;;;13.20;88.30;;;;;;5031484;28;20127;-64
2023/09/22 03:07:44;;;;;;;109.90;42.78;;;13.10;88.20;;;;;;5049138;28;20049;-65
2023/09/22 03:10:13;;;;;;;82.70;37.80;;;13.10;88.20;;;;;;5030712;28;20052;-65
2023/09/22 03:12:39;;;;;;;87.28;38.05;;;13.10;88.10;;;;;;5046850;28;20124;-64
2023/09/22 03:15:06;;;;;;;100.97;40.63;;;13.00;88.10;;;;;;5031121;28;20399;-65
2023/09/22 03:17:32;;;;;;;91.43;37.63;;;13.00;88.10;;;;;;5049281;28;20119;-66
2023/09/22 03:19:58;;;;;;;125.45;41.92;;;13.00;88.10;;;;;;5049016;28;20524;-64
2023/09/22 03:22:25;;;;;;;83.93;35.25;;;13.00;88.20;;;;;;5049293;28;20428;-65
2023/09/22 03:24:51;;;;;;;72.70;33.22;;;12.90;88.10;;;;;;5049078;28;20421;-65
2023/09/22 03:27:17;;;;;;;87.07;33.67;;;12.90;88.00;;;;;;5048887;28;20060;-65
2023/09/22 03:29:43;;;;;;;107.35;35.70;;;12.90;88.00;;;;;;5048248;28;20098;-64
2023/09/22 03:32:09;;;;;;;78.97;30.33;;;12.80;88.10;;;;;;5048544;28;20049;-64
2023/09/22 03:34:35;;;;;;;75.60;29.55;;;12.80;88.20;;;;;;5048269;28;20076;-65
2023/09/22 03:37:01;;;;;;;58.13;25.52;;;12.80;88.20;;;;;;5048484;28;20509;-64
2023/09/22 03:39:28;;;;;;;57.63;25.73;;;12.80;88.30;;;;;;5030476;28;20337;-64
2023/09/22 03:41:54;;;;;;;76.95;27.75;;;12.90;88.40;;;;;;5048834;28;20056;-64
2023/09/22 03:44:23;;;;;;;60.28;26.02;;;12.90;88.40;;;;;;5030798;28;20122;-65
2023/09/22 03:46:49;;;;;;;59.42;25.50;;;12.90;88.40;;;;;;5047524;28;20080;-65
2023/09/22 03:49:15;;;;;;;45.50;22.27;;;12.90;88.50;;;;;;5029733;28;20072;-65
2023/09/22 03:51:40;;;;;;;41.05;21.50;;;12.90;88.50;;;;;;5029566;28;20049;-64
2023/09/22 03:54:08;;;;;;;52.97;23.23;;;13.00;88.50;;;;;;5048420;28;20617;-64
2023/09/22 03:56:37;;;;;;;44.70;22.33;;;13.00;88.40;;;;;;5047590;28;20045;-63
2023/09/22 03:59:03;;;;;;;57.40;23.77;;;13.00;88.40;;;;;;5047668;28;20128;-65
2023/09/22 04:01:29;;;;;;;70.28;25.17;;;13.00;88.30;;;;;;5047887;28;20128;-63
2023/09/22 04:03:55;;;;;;;50.30;22.63;;;13.00;88.30;;;;;;5047871;28;20484;-65
2023/09/22 04:06:20;;;;;;;59.55;25.13;;;13.00;88.20;;;;;;5047895;28;20048;-64
2023/09/22 04:08:48;;;;;;;68.05;26.30;;;12.90;88.20;;;;;;5046328;28;20045;-63
2023/09/22 04:11:14;;;;;;;87.82;28.00;;;12.90;88.20;;;;;;5048307;28;20123;-65
2023/09/22 04:13:40;;;;;;;59.42;25.88;;;12.90;88.20;;;;;;5045689;28;20041;-64
2023/09/22 04:16:06;;;;;;;71.05;26.88;;;12.90;88.20;;;;;;5047666;28;20249;-65
2023/09/22 04:18:32;;;;;;;69.22;27.25;;;12.80;88.10;;;;;;5046766;28;20045;-64
2023/09/22 04:21:01;;;;;;;82.00;28.35;;;12.80;88.10;;;;;;5045250;28;20474;-64
2023/09/22 04:23:27;;;;;;;78.95;28.85;;;12.70;88.00;;;;;;5048313;28;20119;-63
2023/09/22 04:25:54;;;;;;;73.45;28.30;;;12.70;88.00;;;;;;5047516;28;20132;-65
2023/09/22 04:28:25;;;;;;;67.25;28.50;;;12.70;88.00;;;;;;5047048;28;20045;-64
2023/09/22 04:30:53;;;;;;;70.47;28.80;;;12.70;88.10;;;;;;5047274;28;20120;-64
2023/09/22 04:33:20;;;;;;;89.68;32.05;;;12.60;88.10;;;;;;5047512;28;20519;-64
2023/09/22 04:35:48;;;;;;;72.70;30.98;;;12.50;88.20;;;;;;5046915;28;20056;-65
2023/09/22 04:38:14;;;;;;;106.15;35.42;;;12.60;88.20;;;;;;5047633;28;20056;-63
2023/09/22 04:40:40;;;;;;;103.00;35.50;;;12.60;88.30;;;;;;5046627;28;20488;-64
2023/09/22 04:43:07;;;;;;;92.47;33.33;;;12.50;88.30;;;;;;5045344;28;20080;-64
2023/09/22 04:45:40;;;;;;;131.77;38.15;;;12.60;88.40;;;;;;5046205;28;20045;-64
2023/09/22 04:48:07;;;;;;;89.28;34.63;;;12.60;88.50;;;;;;5029118;28;20095;-65
2023/09/22 04:50:33;;;;;;;131.25;39.42;;;12.70;88.60;;;;;;5046026;28;20071;-64
2023/09/22 04:52:59;;;;;;;113.22;38.40;;;12.70;88.60;;;;;;5047534;28;20488;-64
2023/09/22 04:55:25;;;;;;;116.38;44.20;;;12.70;88.70;;;;;;5047605;28;20037;-64
2023/09/22 04:57:50;;;;;;;80.75;37.28;;;12.70;88.70;;;;;;5046500;28;20322;-65
2023/09/22 05:00:16;;;;;;;97.25;39.17;;;12.80;88.80;;;;;;5046269;28;20080;-65
2023/09/22 05:02:43;;;;;;;85.97;36.75;;;12.80;88.90;;;;;;5046308;28;20372;-64
2023/09/22 05:05:10;;;;;;;108.25;42.88;;;12.80;88.90;;;;;;5046829;28;20051;-65
2023/09/22 05:07:36;;;;;;;97.63;44.65;;;12.80;88.90;;;;;;5044011;28;20051;-65
2023/09/22 05:10:02;;;;;;;103.28;45.38;;;12.80;88.80;;;;;;5040778;28;20049;-63
2023/09/22 05:12:30;;;;;;;115.57;44.60;;;12.80;88.80;;;;;;5039771;28;20756;-64
2023/09/22 05:14:55;;;;;;;106.18;43.42;;;12.80;88.70;;;;;;5041563;28;20044;-64
2023/09/22 05:17:22;;;;;;;107.10;51.58;;;12.80;88.70;;;;;;5042689;28;20518;-64
2023/09/22 05:19:48;;;;;;;106.82;47.67;;;12.80;88.70;;;;;;5044177;28;20044;-65
2023/09/22 05:22:13;;;;;;;92.45;43.75;;;12.80;88.60;;;;;;5044518;28;20052;-65
2023/09/22 05:24:39;;;;;;;112.97;52.55;;;12.70;88.60;;;;;;5042160;28;20057;-64
2023/09/22 05:27:05;;;;;;;120.65;50.95;;;12.80;88.60;;;;;;5044109;28;20102;-64
2023/09/22 05:29:30;;;;;;;121.63;49.63;;;12.70;88.60;;;;;;5042960;28;20582;-62
2023/09/22 05:31:56;;;;;;;116.63;48.42;;;12.70;88.60;;;;;;5043670;28;20372;-62
2023/09/22 05:34:22;;;;;;;88.72;46.80;;;12.70;88.50;;;;;;5044575;28;20106;-65
2023/09/22 05:36:49;;;;;;;91.68;44.13;;;12.70;88.50;;;;;;5043905;28;20522;-64
2023/09/22 05:39:15;;;;;;;96.47;44.53;;;12.70;88.40;;;;;;5044002;28;20052;-64
2023/09/22 05:41:41;;;;;;;102.68;45.55;;;12.60;88.30;;;;;;5043322;28;20072;-65
2023/09/22 05:44:07;;;;;;;89.38;41.47;;;12.60;88.30;;;;;;5042896;28;20094;-65
2023/09/22 05:46:34;;;;;;;77.40;41.15;;;12.60;88.20;;;;;;5042403;28;20561;-64
2023/09/22 05:48:59;;;;;;;67.97;37.88;;;12.50;88.20;;;;;;5043283;28;20164;-64
2023/09/22 05:51:26;;;;;;;77.68;40.70;;;12.50;88.10;;;;;;5043582;28;20132;-64
2023/09/22 05:53:52;;;;;;;76.60;39.42;;;12.50;88.00;;;;;;5033684;28;20488;-65
2023/09/22 05:56:17;;;;;;;68.72;38.28;;;12.50;87.90;;;;;;5030778;28;20059;-64
2023/09/22 05:58:44;;;;;;;85.75;45.17;;;12.50;87.90;;;;;;5027444;28;20091;-65
2023/09/22 06:01:11;;;;;;;70.38;38.72;;;12.50;87.80;;;;;;5011375;28;20428;-63
2023/09/22 06:03:39;;;;;;;71.43;38.08;;;12.50;87.80;;;;;;5026351;28;20561;-65
2023/09/22 06:06:06;;;;;;;76.45;40.30;;;12.50;87.60;;;;;;5017264;28;20468;-64
2023/09/22 06:08:32;;;;;;;76.78;42.17;;;12.50;87.70;;;;;;5030729;28;20053;-65
2023/09/22 06:10:59;;;;;;;84.18;43.22;;;12.50;87.60;;;;;;5031984;28;20063;-62
2023/09/22 06:13:25;;;;;;;88.10;42.90;;;12.50;87.60;;;;;;5030856;28;20088;-62
2023/09/22 06:15:51;;;;;;;92.50;43.38;;;12.50;87.60;;;;;;5032329;28;20517;-64
2023/09/22 06:18:18;;;;;;;88.68;45.00;;;12.50;87.60;;;;;;5015127;28;20056;-64
2023/09/22 06:20:45;;;;;;;100.82;49.35;;;12.50;87.60;;;;;;5033583;28;20069;-65
2023/09/22 06:23:10;;;;;;;107.93;51.88;;;12.50;87.60;;;;;;5034691;28;20056;-64
2023/09/22 06:25:36;;;;;;;94.68;46.00;;;12.50;87.60;;;;;;5035697;28;20049;-64
2023/09/22 06:28:05;;;;;;;78.97;42.97;;;12.50;87.60;;;;;;5035394;28;20123;-63
2023/09/22 06:30:34;;;;;;;94.93;45.20;;;12.50;87.50;;;;;;5034868;28;20813;-63
2023/09/22 06:33:00;;;;;;;85.57;42.53;;;12.50;87.50;;;;;;5017927;28;20044;-65
2023/09/22 06:35:26;;;;;;;82.53;42.67;;;12.40;87.50;;;;;;5038412;28;20108;-62
2023/09/22 06:37:52;;;;;;;73.03;40.25;;;12.40;87.50;;;;;;5039474;28;20045;-65
2023/09/22 06:40:17;;;;;;;76.22;41.10;;;12.40;87.40;;;;;;5038105;28;20052;-62
2023/09/22 06:42:45;;;;;;;86.85;42.13;;;12.40;87.30;;;;;;5019407;28;20055;-65
2023/09/22 06:45:11;;;;;;;81.82;42.03;;;12.40;87.20;;;;;;5038231;28;20056;-64
2023/09/22 06:47:37;;;;;;;76.82;40.00;;;12.40;87.30;;;;;;5038429;28;20082;-64
2023/09/22 06:50:06;;;;;;;87.32;42.38;;;12.40;87.20;;;;;;5038537;28;20119;-64
2023/09/22 06:52:33;;;;;;;67.97;39.60;;;12.40;87.20;;;;;;5038325;28;20103;-65
2023/09/22 06:55:02;;;;;;;83.82;43.38;;;12.40;87.10;;;;;;5038405;28;20057;-63
2023/09/22 06:57:28;;;;;;;86.00;40.97;;;12.40;87.20;;;;;;5038780;28;20168;-62
2023/09/22 06:59:55;;;;;;;73.35;40.10;;;12.40;87.30;;;;;;5019957;28;20484;-64
2023/09/22 07:02:22;;;;;;;72.15;41.30;;;12.40;87.20;;;;;;5036260;28;20492;-64
2023/09/22 07:04:47;;;;;;;74.05;40.22;;;12.50;87.20;;;;;;5031730;28;20605;-64
2023/09/22 07:07:13;;;;;;;75.28;41.45;;;12.50;87.30;;;;;;5021443;28;20492;-64
2023/09/22 07:09:43;;;;;;;79.63;42.15;;;12.50;87.30;;;;;;5038984;28;20056;-63
2023/09/22 07:12:09;;;;;;;73.35;41.05;;;12.50;87.20;;;;;;5037367;28;20782;-64
2023/09/22 07:14:36;;;;;;;66.97;37.63;;;12.50;87.20;;;;;;5039285;28;20165;-62
2023/09/22 07:17:02;;;;;;;68.60;37.63;;;12.50;87.20;;;;;;5039738;28;20052;-65
2023/09/22 07:19:30;;;;;;;69.13;37.65;;;12.50;87.00;;;;;;5039192;28;20474;-64
2023/09/22 07:21:55;;;;;;;71.32;38.05;;;12.50;87.00;;;;;;5038903;28;20558;-62
2023/09/22 07:24:22;;;;;;;58.60;34.35;;;12.50;87.10;;;;;;5039487;28;20044;-66
2023/09/22 07:26:47;;;;;;;61.70;33.67;;;12.50;87.00;;;;;;5039163;28;20686;-65
2023/09/22 07:29:13;;;;;;;62.00;33.35;;;12.50;86.80;;;;;;5021730;28;20056;-64
2023/09/22 07:31:39;;;;;;;64.07;33.63;;;12.50;86.90;;;;;;5039650;28;20053;-66
2023/09/22 07:34:04;;;;;;;62.60;33.08;;;12.50;87.00;;;;;;5039732;28;20045;-64
2023/09/22 07:36:30;;;;;;;56.63;31.60;;;12.60;87.00;;;;;;5037291;28;20631;-64
2023/09/22 07:38:56;;;;;;;58.25;31.45;;;12.50;86.90;;;;;;5021161;28;20111;-63
2023/09/22 07:41:21;;;;;;;54.90;31.42;;;12.60;86.90;;;;;;5038593;28;20057;-64
2023/09/22 07:43:47;;;;;;;51.42;31.15;;;12.60;86.90;;;;;;5037930;28;20072;-65
2023/09/22 07:46:13;;;;;;;52.75;30.83;;;12.60;86.70;;;;;;5037703;28;20127;-64
2023/09/22 07:48:38;;;;;;;48.80;27.70;;;12.70;86.80;;;;;;5038207;28;20052;-64
2023/09/22 08:08:00;;;;;;;37.90;22.45;;;12.90;86.40;;;;;;5130226;27;20130;-65
2023/09/22 08:10:28;;;;;;;36.83;21.70;;;13.00;85.80;;;;;;5128432;27;20055;-63
2023/09/22 08:12:53;;;;;;;34.85;20.30;;;12.90;85.80;;;;;;5126917;27;20714;-64
2023/09/22 08:15:19;;;;;;;33.15;19.88;;;12.90;85.70;;;;;;5126231;27;20047;-64
2023/09/22 08:17:52;;;;;;;35.72;21.13;;;12.90;85.90;;;;;;5131356;27;20039;-64
2023/09/22 08:20:19;;;;;;;33.20;19.92;;;12.80;85.90;;;;;;5134328;27;20051;-65
2023/09/22 08:22:47;;;;;;;28.85;19.05;;;12.80;85.90;;;;;;5127261;27;20170;-65
2023/09/22 08:25:13;;;;;;;29.73;18.67;;;12.80;85.70;;;;;;5126513;27;20398;-63
2023/09/22 08:27:39;;;;;;;30.45;18.45;;;12.80;85.70;;;;;;5126961;27;20043;-65
2023/09/22 08:30:11;;;;;;;30.45;19.73;;;12.80;85.70;;;;;;5128597;27;20043;-63
2023/09/22 08:33:01;;;;;;;33.65;21.73;;;12.90;85.70;;;;;;5121042;27;20062;-65
2023/09/22 08:35:27;;;;;;;29.40;20.08;;;12.90;85.80;;;;;;5085024;28;20056;-65
2023/09/22 08:37:52;;;;;;;35.90;21.55;;;13.00;85.90;;;;;;5072172;28;20111;-65
2023/09/22 08:40:18;;;;;;;33.75;22.58;;;13.00;85.90;;;;;;5089888;28;20052;-63
2023/09/22 08:42:46;;;;;;;34.38;21.13;;;13.00;85.90;;;;;;5087238;28;20047;-62
2023/09/22 08:45:12;;;;;;;34.25;21.23;;;13.00;85.90;;;;;;5091180;28;20085;-65
2023/09/22 08:47:39;;;;;;;30.85;20.95;;;13.10;85.80;;;;;;5092188;28;20047;-64
2023/09/22 08:50:11;;;;;;;32.67;19.98;;;13.10;85.70;;;;;;5093660;28;20064;-66
2023/09/22 08:52:46;;;;;;;28.65;20.85;;;13.10;85.80;;;;;;5092658;28;20039;-65
2023/09/22 08:55:16;;;;;;;40.97;25.55;;;13.10;85.50;;;;;;5096043;28;20563;-66
2023/09/22 08:57:46;;;;;;;39.80;29.17;;;13.10;85.50;;;;;;5091869;28;20052;-66
2023/09/22 09:00:20;;;;;;;31.05;20.52;;;13.10;85.60;;;;;;5092636;28;20044;-66
2023/09/22 09:02:55;;;;;;;32.55;23.38;;;13.20;85.30;;;;;;5090166;28;20048;-66
2023/09/22 09:05:24;;;;;;;33.20;21.77;;;13.30;85.20;;;;;;5091695;28;20477;-65
2023/09/22 09:07:51;;;;;;;28.35;19.92;;;13.30;85.30;;;;;;5130106;27;20055;-64
2023/09/22 09:10:31;;;;;;;28.75;20.33;;;13.40;84.90;;;;;;5121189;27;20120;-66
2023/09/22 09:13:01;;;;;;;26.85;18.38;;;13.50;85.00;;;;;;5116741;27;20039;-63
2023/09/22 09:15:28;;;;;;;24.80;17.98;;;13.50;84.90;;;;;;5122785;27;20047;-64
2023/09/22 09:18:04;;;;;;;24.35;17.77;;;13.50;84.80;;;;;;5115142;27;20414;-65
2023/09/22 09:20:32;;;;;;;23.85;16.90;;;13.60;84.80;;;;;;5110586;27;20066;-64
2023/09/22 09:22:57;;;;;;;17.40;13.55;;;13.60;84.70;;;;;;5117436;27;20047;-64
2023/09/22 09:25:23;;;;;;;17.38;12.77;;;13.60;84.20;;;;;;5114281;27;20047;-64
2023/09/22 09:28:04;;;;;;;15.75;11.80;;;13.70;83.90;;;;;;5117916;27;20044;-65
2023/09/22 09:30:31;;;;;;;13.05;10.57;;;13.70;83.30;;;;;;5114907;27;20059;-65
2023/09/22 09:33:10;;;;;;;12.75;10.43;;;13.70;82.20;;;;;;5112254;27;20035;-65
2023/09/22 09:35:41;;;;;;;13.43;10.88;;;13.80;82.40;;;;;;5113017;27;20045;-65
2023/09/22 09:38:08;;;;;;;15.15;10.55;;;13.90;83.10;;;;;;5116137;27;20058;-64
2023/09/22 09:40:37;;;;;;;11.80;9.88;;;14.00;83.20;;;;;;5115204;27;20051;-65
2023/09/22 09:43:10;;;;;;;18.88;9.80;;;14.10;82.60;;;;;;5114016;27;20579;-65
2023/09/22 09:45:42;;;;;;;14.68;9.15;;;14.30;83.00;;;;;;5116045;27;20422;-63
2023/09/22 09:48:10;;;;;;;12.23;8.05;;;14.40;81.50;;;;;;5112737;27;20085;-65
2023/09/22 09:50:40;;;;;;;9.38;7.10;;;14.40;81.20;;;;;;5113086;27;20472;-64
2023/09/22 09:53:20;;;;;;;13.50;7.22;;;14.50;81.20;;;;;;5111399;27;20082;-63
2023/09/22 09:55:49;;;;;;;10.77;7.38;;;14.60;80.70;;;;;;5112736;27;20055;-64
2023/09/22 09:58:16;;;;;;;12.85;8.77;;;14.70;81.40;;;;;;5111533;27;20039;-67
2023/09/22 10:00:43;;;;;;;12.82;8.93;;;14.80;80.60;;;;;;5111976;27;20176;-65
2023/09/22 10:03:12;;;;;;;9.48;5.32;;;14.80;80.00;;;;;;5111971;27;20044;-66
2023/09/22 10:05:39;;;;;;;5.28;3.60;;;14.90;80.00;;;;;;5114909;27;20048;-65
2023/09/22 10:08:06;;;;;;;3.38;2.35;;;14.90;79.00;;;;;;5109318;27;20526;-66
2023/09/22 10:10:35;;;;;;;2.97;2.67;;;14.80;77.50;;;;;;5117635;27;20051;-64
2023/09/22 10:13:01;;;;;;;3.80;2.67;;;14.60;77.50;;;;;;5112456;27;20065;-65
2023/09/22 10:15:52;;;;;;;6.65;3.90;;;14.50;77.20;;;;;;5115204;27;20050;-64
2023/09/22 10:18:18;;;;;;;;;;;14.40;77.30;;;;;;5109070;27;20070;-67
2023/09/22 10:20:45;;;;;;;4.55;2.50;;;14.30;76.20;;;;;;5102521;27;19927;-66
2023/09/22 10:23:17;;;;;;;3.47;2.45;;;14.30;77.40;;;;;;5111542;27;20054;-65
2023/09/22 10:26:03;;;;;;;8.30;2.30;;;14.30;77.40;;;;;;5107269;27;20047;-64
2023/09/22 10:28:28;;;;;;;4.22;2.25;;;14.50;77.00;;;;;;5108697;27;20431;-63
2023/09/22 10:30:57;;;;;;;6.65;2.13;;;14.60;76.90;;;;;;5100676;27;20055;-65
2023/09/22 10:33:23;;;;;;;6.13;2.13;;;14.60;76.60;;;;;;5104991;27;20066;-66
2023/09/22 10:35:49;;;;;;;3.88;1.95;;;14.70;76.70;;;;;;5106425;27;20066;-64
2023/09/22 10:38:15;;;;;;;3.45;2.00;;;14.80;75.60;;;;;;5106870;27;20051;-65
2023/09/22 10:41:07;;;;;;;3.80;1.90;;;14.90;76.50;;;;;;5104349;27;20082;-64
2023/09/22 10:43:33;;;;;;;3.35;1.70;;;14.90;74.70;;;;;;5108333;27;20055;-67
2023/09/22 10:45:59;;;;;;;3.90;2.10;;;14.90;75.50;;;;;;5113963;27;20117;-64
2023/09/22 10:48:35;;;;;;;2.92;1.77;;;14.80;75.30;;;;;;5113878;27;20051;-64
2023/09/22 10:51:01;;;;;;;3.28;1.73;;;14.80;75.40;;;;;;5112585;27;20082;-64
2023/09/22 10:53:29;;;;;;;3.90;1.77;;;14.80;75.20;;;;;;5108757;27;20075;-65
2023/09/22 10:56:03;;;;;;;7.97;2.03;;;14.90;75.50;;;;;;5111062;27;20059;-66
2023/09/22 10:58:28;;;;;;;1.98;1.55;;;14.90;75.40;;;;;;5108895;27;20137;-64
2023/09/22 11:00:56;;;;;;;3.83;1.42;;;15.00;75.50;;;;;;5114402;27;20380;-64
2023/09/22 11:03:23;;;;;;;2.55;2.10;;;15.00;74.60;;;;;;5109338;27;20059;-65
2023/09/22 11:06:08;;;;;;;4.50;1.88;;;15.00;74.70;;;;;;5110646;27;20051;-65
2023/09/22 11:08:34;;;;;;;3.40;1.50;;;15.20;74.50;;;;;;5111948;27;20471;-66
2023/09/22 11:11:01;;;;;;;5.90;2.13;;;15.20;74.40;;;;;;5112128;27;20051;-67
2023/09/22 11:13:27;;;;;;;3.67;1.50;;;15.20;74.70;;;;;;5108833;27;20051;-64
2023/09/22 11:15:59;;;;;;;3.88;1.38;;;15.30;74.60;;;;;;5113718;27;20175;-67
2023/09/22 11:18:35;;;;;;;8.10;3.88;;;15.30;74.00;;;;;;5111263;27;20043;-64
2023/09/22 11:21:08;;;;;;;3.20;1.60;;;15.20;74.70;;;;;;5113342;27;20490;-65
2023/09/22 11:23:38;;;;;;;6.78;3.80;;;15.20;74.30;;;;;;5112738;27;20064;-64
2023/09/22 11:26:12;;;;;;;3.47;1.70;;;15.20;74.70;;;;;;5115621;27;20047;-65
2023/09/22 11:28:43;;;;;;;1.98;1.55;;;15.40;74.40;;;;;;5110494;27;20162;-65
2023/09/22 11:31:14;;;;;;;3.60;2.50;;;15.40;74.40;;;;;;5110734;27;20130;-65
2023/09/22 11:33:41;;;;;;;3.55;2.70;;;15.50;74.60;;;;;;5113162;27;20551;-67
2023/09/22 11:36:07;;;;;;;5.20;1.33;;;15.50;74.50;;;;;;5112874;27;20058;-63
2023/09/22 11:38:34;;;;;;;3.28;1.80;;;15.60;72.00;;;;;;5114126;27;20039;-64
2023/09/22 11:41:02;;;;;;;2.58;1.83;;;15.60;74.10;;;;;;5111757;27;20047;-66
2023/09/22 11:43:28;;;;;;;4.38;1.83;;;15.70;73.90;;;;;;5111041;27;20052;-65
2023/09/22 11:46:13;;;;;;;2.40;1.80;;;15.70;73.70;;;;;;5115414;27;20241;-64
2023/09/22 11:49:02;;;;;;;3.30;1.80;;;15.70;72.10;;;;;;5110157;27;20077;-64
2023/09/22 11:51:39;;;;;;;2.50;1.83;;;15.70;73.70;;;;;;5107411;27;20516;-64
2023/09/22 11:54:06;;;;;;;2.10;1.90;;;15.80;73.90;;;;;;5109740;27;20069;-66
2023/09/22 11:56:32;;;;;;;3.90;1.90;;;15.90;74.50;;;;;;5111260;27;20056;-65
2023/09/22 11:59:05;;;;;;;4.57;1.77;;;16.00;74.20;;;;;;5109655;28;20051;-65
2023/09/22 12:01:31;;;;;;;2.22;1.30;;;16.10;73.60;;;;;;5110569;27;20062;-65
2023/09/22 12:03:57;;;;;;;2.20;1.60;;;16.10;73.80;;;;;;5108450;28;20107;-66
2023/09/22 12:06:23;;;;;;;5.00;1.67;;;16.10;73.80;;;;;;5112829;28;20066;-66
2023/09/22 12:08:49;;;;;;;2.95;1.60;;;16.00;73.80;;;;;;5111021;27;20059;-65
2023/09/22 12:11:14;;;;;;;3.25;1.50;;;16.00;73.50;;;;;;5106973;28;20043;-65
2023/09/22 12:13:40;;;;;;;2.97;1.10;;;15.80;73.50;;;;;;5108911;28;20680;-68
2023/09/22 12:16:06;;;;;;;2.58;1.23;;;15.80;73.40;;;;;;5108779;28;20120;-66
2023/09/22 12:18:32;;;;;;;3.50;1.02;;;15.80;73.40;;;;;;5112345;27;20058;-65
2023/09/22 12:20:58;;;;;;;2.20;1.67;;;15.80;73.40;;;;;;5110616;28;20451;-65
2023/09/22 12:23:23;;;;;;;2.70;1.35;;;15.80;73.80;;;;;;5112349;28;20511;-66
2023/09/22 12:25:52;;;;;;;2.80;1.20;;;15.80;73.90;;;;;;5104194;28;20055;-66
2023/09/22 12:28:18;;;;;;;2.65;1.73;;;15.80;74.10;;;;;;5107095;28;20062;-65
2023/09/22 12:30:44;;;;;;;4.13;1.55;;;15.80;74.30;;;;;;5098522;28;20048;-66
2023/09/22 12:33:11;;;;;;;5.72;1.55;;;16.00;73.90;;;;;;5101876;28;20099;-65
2023/09/22 12:35:38;;;;;;;1.98;1.45;;;16.00;74.40;;;;;;5101808;28;20058;-65
2023/09/22 12:38:06;;;;;;;3.85;1.58;;;16.00;74.30;;;;;;5104458;27;20039;-64
2023/09/22 12:40:32;;;;;;;3.38;1.65;;;16.00;73.80;;;;;;5101724;28;20040;-64
2023/09/22 12:42:58;;;;;;;3.35;1.58;;;16.00;74.00;;;;;;5109202;27;20063;-64
2023/09/22 12:45:23;;;;;;;4.13;1.45;;;15.90;74.20;;;;;;5112346;27;20044;-65
2023/09/22 12:47:50;;;;;;;4.13;1.40;;;15.80;74.00;;;;;;5118517;27;20043;-64
2023/09/22 12:50:15;;;;;;;2.60;1.38;;;15.80;74.30;;;;;;5117454;27;20423;-65